sensor_id;sensor_type;location;lat;lon;timestamp;P1;durP1;ratioP1;P2;durP2;ratioP2
33593;SDS011;19920;52.242;20.940;2024-02-26T00:01:40;24.35;;;13.43;;
33593;SDS011;19920;52.242;20.940;2024-02-26T00:04:06;21.75;;;12.90;;
33593;SDS011;19920;52.242;20.940;2024-02-26T00:06:31;21.58;;;13.30;;
33593;SDS011;19920;52.242;20.940;2024-02-26T00:08:57;20.83;;;12.88;;
33593;SDS011;19920;52.242;20.940;2024-02-26T00:11:23;25.30;;;14.02;;
33593;SDS011;19920;52.242;20.940;2024-02-26T00:13:49;27.67;;;12.75;;
33593;SDS011;19920;52.242;20.940;2024-02-26T00:16:14;21.98;;;12.38;;
33593;SDS011;19920;52.242;20.940;2024-02-26T00:18:40;21.55;;;12.50;;
33593;SDS011;19920;52.242;20.940;2024-02-26T00:21:06;21.60;;;13.02;;
33593;SDS011;19920;52.242;20.940;2024-02-26T00:23:31;21.50;;;13.10;;
33593;SDS011;19920;52.242;20.940;2024-02-26T00:25:57;24.52;;;13.75;;
33593;SDS011;19920;52.242;20.940;2024-02-26T00:28:23;25.17;;;14.05;;
33593;SDS011;19920;52.242;20.940;2024-02-26T00:30:49;20.90;;;12.95;;
33593;SDS011;19920;52.242;20.940;2024-02-26T00:33:20;21.40;;;12.75;;
33593;SDS011;19920;52.242;20.940;2024-02-26T00:35:46;24.42;;;13.30;;
33593;SDS011;19920;52.242;20.940;2024-02-26T00:38:12;24.10;;;13.27;;
33593;SDS011;19920;52.242;20.940;2024-02-26T00:40:37;22.92;;;13.45;;
33593;SDS011;19920;52.242;20.940;2024-02-26T00:43:03;23.52;;;13.18;;
33593;SDS011;19920;52.242;20.940;2024-02-26T00:45:28;27.85;;;13.70;;
33593;SDS011;19920;52.242;20.940;2024-02-26T00:47:54;24.92;;;14.73;;
33593;SDS011;19920;52.242;20.940;2024-02-26T00:50:20;26.17;;;13.85;;
33593;SDS011;19920;52.242;20.940;2024-02-26T00:52:46;27.48;;;14.32;;
33593;SDS011;19920;52.242;20.940;2024-02-26T00:55:12;24.05;;;14.43;;
33593;SDS011;19920;52.242;20.940;2024-02-26T00:57:37;23.73;;;14.55;;
33593;SDS011;19920;52.242;20.940;2024-02-26T01:00:03;24.02;;;13.57;;
33593;SDS011;19920;52.242;20.940;2024-02-26T01:02:29;25.13;;;14.18;;
33593;SDS011;19920;52.242;20.940;2024-02-26T01:04:55;23.63;;;14.20;;
33593;SDS011;19920;52.242;20.940;2024-02-26T01:07:20;23.75;;;14.23;;
33593;SDS011;19920;52.242;20.940;2024-02-26T01:09:46;25.05;;;14.15;;
33593;SDS011;19920;52.242;20.940;2024-02-26T01:12:11;24.83;;;14.35;;
33593;SDS011;19920;52.242;20.940;2024-02-26T01:14:37;23.67;;;14.20;;
33593;SDS011;19920;52.242;20.940;2024-02-26T01:17:03;29.25;;;15.50;;
33593;SDS011;19920;52.242;20.940;2024-02-26T01:19:28;25.10;;;14.40;;
33593;SDS011;19920;52.242;20.940;2024-02-26T01:21:54;27.45;;;15.35;;
33593;SDS011;19920;52.242;20.940;2024-02-26T01:24:19;24.25;;;14.73;;
33593;SDS011;19920;52.242;20.940;2024-02-26T01:26:45;25.77;;;15.07;;
33593;SDS011;19920;52.242;20.940;2024-02-26T01:29:11;25.35;;;15.10;;
33593;SDS011;19920;52.242;20.940;2024-02-26T01:31:37;24.30;;;13.98;;
33593;SDS011;19920;52.242;20.940;2024-02-26T01:34:02;22.52;;;14.27;;
33593;SDS011;19920;52.242;20.940;2024-02-26T01:36:28;26.45;;;15.80;;
33593;SDS011;19920;52.242;20.940;2024-02-26T01:38:53;24.55;;;15.35;;
33593;SDS011;19920;52.242;20.940;2024-02-26T01:41:19;24.45;;;14.85;;
33593;SDS011;19920;52.242;20.940;2024-02-26T01:43:44;27.40;;;15.68;;
33593;SDS011;19920;52.242;20.940;2024-02-26T01:46:11;24.50;;;14.68;;
33593;SDS011;19920;52.242;20.940;2024-02-26T01:48:40;25.23;;;14.57;;
33593;SDS011;19920;52.242;20.940;2024-02-26T01:51:07;26.60;;;14.85;;
33593;SDS011;19920;52.242;20.940;2024-02-26T01:53:33;27.08;;;15.32;;
33593;SDS011;19920;52.242;20.940;2024-02-26T01:55:59;26.83;;;15.48;;
33593;SDS011;19920;52.242;20.940;2024-02-26T01:58:25;24.95;;;15.15;;
33593;SDS011;19920;52.242;20.940;2024-02-26T02:00:51;24.08;;;14.70;;
33593;SDS011;19920;52.242;20.940;2024-02-26T02:03:16;26.48;;;15.55;;
33593;SDS011;19920;52.242;20.940;2024-02-26T02:05:42;27.70;;;15.55;;
33593;SDS011;19920;52.242;20.940;2024-02-26T02:08:10;26.88;;;14.55;;
33593;SDS011;19920;52.242;20.940;2024-02-26T02:10:36;27.88;;;16.05;;
33593;SDS011;19920;52.242;20.940;2024-02-26T02:13:03;24.92;;;15.05;;
33593;SDS011;19920;52.242;20.940;2024-02-26T02:15:29;24.48;;;14.77;;
33593;SDS011;19920;52.242;20.940;2024-02-26T02:17:55;25.60;;;15.20;;
33593;SDS011;19920;52.242;20.940;2024-02-26T02:20:31;23.95;;;15.18;;
33593;SDS011;19920;52.242;20.940;2024-02-26T02:23:00;28.80;;;17.02;;
33593;SDS011;19920;52.242;20.940;2024-02-26T02:25:26;25.48;;;15.05;;
33593;SDS011;19920;52.242;20.940;2024-02-26T02:27:53;28.38;;;15.30;;
33593;SDS011;19920;52.242;20.940;2024-02-26T02:30:20;24.20;;;14.60;;
33593;SDS011;19920;52.242;20.940;2024-02-26T02:32:47;25.73;;;14.63;;
33593;SDS011;19920;52.242;20.940;2024-02-26T02:35:14;28.52;;;15.50;;
33593;SDS011;19920;52.242;20.940;2024-02-26T02:37:39;27.17;;;15.35;;
33593;SDS011;19920;52.242;20.940;2024-02-26T02:40:05;25.92;;;15.02;;
33593;SDS011;19920;52.242;20.940;2024-02-26T02:42:31;27.40;;;15.50;;
33593;SDS011;19920;52.242;20.940;2024-02-26T02:44:57;23.73;;;14.13;;
33593;SDS011;19920;52.242;20.940;2024-02-26T02:47:23;25.92;;;15.38;;
33593;SDS011;19920;52.242;20.940;2024-02-26T02:49:48;24.95;;;14.68;;
33593;SDS011;19920;52.242;20.940;2024-02-26T02:52:14;28.58;;;15.38;;
33593;SDS011;19920;52.242;20.940;2024-02-26T02:54:39;24.88;;;14.90;;
33593;SDS011;19920;52.242;20.940;2024-02-26T02:57:06;26.95;;;15.40;;
33593;SDS011;19920;52.242;20.940;2024-02-26T02:59:33;25.42;;;14.70;;
33593;SDS011;19920;52.242;20.940;2024-02-26T03:01:58;23.52;;;15.10;;
33593;SDS011;19920;52.242;20.940;2024-02-26T03:04:24;24.27;;;13.95;;
33593;SDS011;19920;52.242;20.940;2024-02-26T03:06:50;25.98;;;15.75;;
33593;SDS011;19920;52.242;20.940;2024-02-26T03:09:15;24.40;;;14.90;;
33593;SDS011;19920;52.242;20.940;2024-02-26T03:11:41;25.05;;;14.77;;
33593;SDS011;19920;52.242;20.940;2024-02-26T03:14:06;26.13;;;15.32;;
33593;SDS011;19920;52.242;20.940;2024-02-26T03:16:32;26.60;;;14.55;;
33593;SDS011;19920;52.242;20.940;2024-02-26T03:18:58;25.40;;;14.40;;
33593;SDS011;19920;52.242;20.940;2024-02-26T03:21:25;25.50;;;14.85;;
33593;SDS011;19920;52.242;20.940;2024-02-26T03:23:51;24.88;;;14.88;;
33593;SDS011;19920;52.242;20.940;2024-02-26T03:26:16;25.23;;;14.85;;
33593;SDS011;19920;52.242;20.940;2024-02-26T03:28:42;23.77;;;14.23;;
33593;SDS011;19920;52.242;20.940;2024-02-26T03:31:08;25.55;;;14.90;;
33593;SDS011;19920;52.242;20.940;2024-02-26T03:33:34;26.48;;;14.52;;
33593;SDS011;19920;52.242;20.940;2024-02-26T03:35:59;28.27;;;14.57;;
33593;SDS011;19920;52.242;20.940;2024-02-26T03:38:25;27.08;;;15.48;;
33593;SDS011;19920;52.242;20.940;2024-02-26T03:40:51;25.02;;;14.93;;
33593;SDS011;19920;52.242;20.940;2024-02-26T03:43:16;28.15;;;15.52;;
33593;SDS011;19920;52.242;20.940;2024-02-26T03:45:42;28.08;;;15.30;;
33593;SDS011;19920;52.242;20.940;2024-02-26T03:48:08;28.83;;;14.90;;
33593;SDS011;19920;52.242;20.940;2024-02-26T03:50:33;27.45;;;14.90;;
33593;SDS011;19920;52.242;20.940;2024-02-26T03:52:59;25.13;;;14.43;;
33593;SDS011;19920;52.242;20.940;2024-02-26T03:55:25;25.15;;;14.95;;
33593;SDS011;19920;52.242;20.940;2024-02-26T03:57:53;24.08;;;14.82;;
33593;SDS011;19920;52.242;20.940;2024-02-26T04:00:19;29.08;;;15.00;;
33593;SDS011;19920;52.242;20.940;2024-02-26T04:02:46;24.35;;;14.75;;
33593;SDS011;19920;52.242;20.940;2024-02-26T04:05:12;27.15;;;14.88;;
33593;SDS011;19920;52.242;20.940;2024-02-26T04:07:39;26.58;;;14.82;;
33593;SDS011;19920;52.242;20.940;2024-02-26T04:10:09;25.02;;;14.02;;
33593;SDS011;19920;52.242;20.940;2024-02-26T04:12:38;25.02;;;14.68;;
33593;SDS011;19920;52.242;20.940;2024-02-26T04:15:06;24.17;;;14.57;;
33593;SDS011;19920;52.242;20.940;2024-02-26T04:17:32;22.17;;;14.02;;
33593;SDS011;19920;52.242;20.940;2024-02-26T04:19:58;23.90;;;14.57;;
33593;SDS011;19920;52.242;20.940;2024-02-26T04:22:23;22.80;;;14.10;;
33593;SDS011;19920;52.242;20.940;2024-02-26T04:24:49;24.60;;;14.65;;
33593;SDS011;19920;52.242;20.940;2024-02-26T04:27:15;28.42;;;15.32;;
33593;SDS011;19920;52.242;20.940;2024-02-26T04:29:40;25.40;;;14.38;;
33593;SDS011;19920;52.242;20.940;2024-02-26T04:32:06;25.88;;;14.18;;
33593;SDS011;19920;52.242;20.940;2024-02-26T04:34:31;23.85;;;14.68;;
33593;SDS011;19920;52.242;20.940;2024-02-26T04:36:57;24.63;;;14.30;;
33593;SDS011;19920;52.242;20.940;2024-02-26T04:39:23;23.95;;;14.27;;
33593;SDS011;19920;52.242;20.940;2024-02-26T04:41:48;22.80;;;14.38;;
33593;SDS011;19920;52.242;20.940;2024-02-26T04:44:14;25.15;;;14.63;;
33593;SDS011;19920;52.242;20.940;2024-02-26T04:46:40;28.00;;;14.57;;
33593;SDS011;19920;52.242;20.940;2024-02-26T04:49:05;25.35;;;14.65;;
33593;SDS011;19920;52.242;20.940;2024-02-26T04:51:31;27.65;;;14.82;;
33593;SDS011;19920;52.242;20.940;2024-02-26T04:53:56;22.77;;;14.15;;
33593;SDS011;19920;52.242;20.940;2024-02-26T04:56:22;26.30;;;14.65;;
33593;SDS011;19920;52.242;20.940;2024-02-26T04:58:48;25.30;;;14.23;;
33593;SDS011;19920;52.242;20.940;2024-02-26T05:01:13;23.65;;;14.25;;
33593;SDS011;19920;52.242;20.940;2024-02-26T05:03:41;24.73;;;14.05;;
33593;SDS011;19920;52.242;20.940;2024-02-26T05:06:07;23.42;;;14.27;;
33593;SDS011;19920;52.242;20.940;2024-02-26T05:08:34;26.20;;;14.60;;
33593;SDS011;19920;52.242;20.940;2024-02-26T05:11:01;26.63;;;15.13;;
33593;SDS011;19920;52.242;20.940;2024-02-26T05:13:27;25.10;;;14.80;;
33593;SDS011;19920;52.242;20.940;2024-02-26T05:15:53;23.00;;;14.73;;
33593;SDS011;19920;52.242;20.940;2024-02-26T05:18:19;24.25;;;14.73;;
33593;SDS011;19920;52.242;20.940;2024-02-26T05:20:45;23.40;;;14.52;;
33593;SDS011;19920;52.242;20.940;2024-02-26T05:23:10;27.40;;;14.85;;
33593;SDS011;19920;52.242;20.940;2024-02-26T05:25:36;24.70;;;15.07;;
33593;SDS011;19920;52.242;20.940;2024-02-26T05:28:02;24.45;;;14.57;;
33593;SDS011;19920;52.242;20.940;2024-02-26T05:30:27;28.23;;;15.48;;
33593;SDS011;19920;52.242;20.940;2024-02-26T05:32:54;25.45;;;14.85;;
33593;SDS011;19920;52.242;20.940;2024-02-26T05:35:19;25.77;;;15.50;;
33593;SDS011;19920;52.242;20.940;2024-02-26T05:37:45;25.55;;;15.40;;
33593;SDS011;19920;52.242;20.940;2024-02-26T05:40:11;25.40;;;15.57;;
33593;SDS011;19920;52.242;20.940;2024-02-26T05:42:37;24.55;;;14.93;;
33593;SDS011;19920;52.242;20.940;2024-02-26T05:45:03;24.17;;;15.05;;
33593;SDS011;19920;52.242;20.940;2024-02-26T05:47:32;22.42;;;14.73;;
33593;SDS011;19920;52.242;20.940;2024-02-26T05:49:58;24.42;;;15.20;;
33593;SDS011;19920;52.242;20.940;2024-02-26T05:52:25;25.63;;;14.65;;
33593;SDS011;19920;52.242;20.940;2024-02-26T05:54:52;24.25;;;15.43;;
33593;SDS011;19920;52.242;20.940;2024-02-26T05:57:18;26.88;;;15.43;;
33593;SDS011;19920;52.242;20.940;2024-02-26T05:59:44;24.05;;;15.15;;
33593;SDS011;19920;52.242;20.940;2024-02-26T06:02:10;23.70;;;14.85;;
33593;SDS011;19920;52.242;20.940;2024-02-26T06:04:36;22.67;;;14.43;;
33593;SDS011;19920;52.242;20.940;2024-02-26T06:07:01;24.60;;;15.52;;
33593;SDS011;19920;52.242;20.940;2024-02-26T06:09:27;26.95;;;16.35;;
33593;SDS011;19920;52.242;20.940;2024-02-26T06:11:53;26.77;;;15.65;;
33593;SDS011;19920;52.242;20.940;2024-02-26T06:14:18;26.77;;;15.82;;
33593;SDS011;19920;52.242;20.940;2024-02-26T06:16:45;22.10;;;15.30;;
33593;SDS011;19920;52.242;20.940;2024-02-26T06:19:11;28.35;;;15.93;;
33593;SDS011;19920;52.242;20.940;2024-02-26T06:21:37;22.98;;;14.27;;
33593;SDS011;19920;52.242;20.940;2024-02-26T06:24:03;24.00;;;14.85;;
33593;SDS011;19920;52.242;20.940;2024-02-26T06:26:29;22.85;;;15.55;;
33593;SDS011;19920;52.242;20.940;2024-02-26T06:28:55;23.20;;;13.90;;
33593;SDS011;19920;52.242;20.940;2024-02-26T06:31:23;24.50;;;15.63;;
33593;SDS011;19920;52.242;20.940;2024-02-26T06:33:49;23.90;;;14.77;;
33593;SDS011;19920;52.242;20.940;2024-02-26T06:36:17;24.00;;;14.50;;
33593;SDS011;19920;52.242;20.940;2024-02-26T06:38:43;23.08;;;14.80;;
33593;SDS011;19920;52.242;20.940;2024-02-26T06:41:09;21.85;;;13.95;;
33593;SDS011;19920;52.242;20.940;2024-02-26T06:43:34;22.48;;;14.95;;
33593;SDS011;19920;52.242;20.940;2024-02-26T06:46:00;22.30;;;14.68;;
33593;SDS011;19920;52.242;20.940;2024-02-26T06:48:26;22.13;;;14.77;;
33593;SDS011;19920;52.242;20.940;2024-02-26T06:50:51;20.75;;;14.25;;
33593;SDS011;19920;52.242;20.940;2024-02-26T06:53:17;23.45;;;14.38;;
33593;SDS011;19920;52.242;20.940;2024-02-26T06:55:42;23.95;;;14.88;;
33593;SDS011;19920;52.242;20.940;2024-02-26T06:58:08;26.67;;;14.15;;
33593;SDS011;19920;52.242;20.940;2024-02-26T07:00:34;22.27;;;14.77;;
33593;SDS011;19920;52.242;20.940;2024-02-26T07:03:00;22.42;;;13.43;;
33593;SDS011;19920;52.242;20.940;2024-02-26T07:05:26;27.10;;;14.35;;
33593;SDS011;19920;52.242;20.940;2024-02-26T07:07:52;22.17;;;14.73;;
33593;SDS011;19920;52.242;20.940;2024-02-26T07:10:18;21.50;;;14.65;;
33593;SDS011;19920;52.242;20.940;2024-02-26T07:12:44;25.02;;;15.07;;
33593;SDS011;19920;52.242;20.940;2024-02-26T07:15:09;24.20;;;15.13;;
33593;SDS011;19920;52.242;20.940;2024-02-26T07:17:35;23.65;;;14.65;;
33593;SDS011;19920;52.242;20.940;2024-02-26T07:20:01;26.58;;;14.90;;
33593;SDS011;19920;52.242;20.940;2024-02-26T07:22:30;25.83;;;14.90;;
33593;SDS011;19920;52.242;20.940;2024-02-26T07:24:55;21.75;;;14.68;;
33593;SDS011;19920;52.242;20.940;2024-02-26T07:27:21;26.33;;;14.25;;
33593;SDS011;19920;52.242;20.940;2024-02-26T07:29:47;23.67;;;15.55;;
33593;SDS011;19920;52.242;20.940;2024-02-26T07:32:13;26.17;;;15.25;;
33593;SDS011;19920;52.242;20.940;2024-02-26T07:34:39;24.77;;;14.50;;
33593;SDS011;19920;52.242;20.940;2024-02-26T07:37:07;26.33;;;15.80;;
33593;SDS011;19920;52.242;20.940;2024-02-26T07:39:33;23.20;;;14.80;;
33593;SDS011;19920;52.242;20.940;2024-02-26T07:41:59;21.70;;;14.52;;
33593;SDS011;19920;52.242;20.940;2024-02-26T07:44:24;23.23;;;14.88;;
33593;SDS011;19920;52.242;20.940;2024-02-26T07:46:50;24.92;;;15.13;;
33593;SDS011;19920;52.242;20.940;2024-02-26T07:49:16;23.88;;;14.73;;
33593;SDS011;19920;52.242;20.940;2024-02-26T07:51:41;24.95;;;14.65;;
33593;SDS011;19920;52.242;20.940;2024-02-26T07:54:07;24.00;;;15.20;;
33593;SDS011;19920;52.242;20.940;2024-02-26T07:56:32;26.10;;;15.45;;
33593;SDS011;19920;52.242;20.940;2024-02-26T07:58:58;27.27;;;15.85;;
33593;SDS011;19920;52.242;20.940;2024-02-26T08:01:24;22.42;;;14.40;;
33593;SDS011;19920;52.242;20.940;2024-02-26T08:03:51;25.25;;;14.75;;
33593;SDS011;19920;52.242;20.940;2024-02-26T08:11:16;22.75;;;14.57;;
33593;SDS011;19920;52.242;20.940;2024-02-26T08:13:41;23.00;;;13.48;;
33593;SDS011;19920;52.242;20.940;2024-02-26T08:16:07;21.27;;;13.75;;
33593;SDS011;19920;52.242;20.940;2024-02-26T08:18:33;21.00;;;14.18;;
33593;SDS011;19920;52.242;20.940;2024-02-26T08:20:58;20.85;;;14.07;;
33593;SDS011;19920;52.242;20.940;2024-02-26T08:23:24;25.42;;;14.68;;
33593;SDS011;19920;52.242;20.940;2024-02-26T08:25:51;21.13;;;13.52;;
33593;SDS011;19920;52.242;20.940;2024-02-26T08:28:16;21.23;;;14.18;;
33593;SDS011;19920;52.242;20.940;2024-02-26T08:30:43;22.40;;;15.25;;
33593;SDS011;19920;52.242;20.940;2024-02-26T08:33:09;21.75;;;15.48;;
33593;SDS011;19920;52.242;20.940;2024-02-26T08:35:35;20.02;;;15.15;;
33593;SDS011;19920;52.242;20.940;2024-02-26T08:38:01;21.75;;;15.55;;
33593;SDS011;19920;52.242;20.940;2024-02-26T08:40:27;24.83;;;15.82;;
33593;SDS011;19920;52.242;20.940;2024-02-26T08:42:54;22.00;;;15.82;;
33593;SDS011;19920;52.242;20.940;2024-02-26T08:45:20;25.83;;;16.77;;
33593;SDS011;19920;52.242;20.940;2024-02-26T08:47:46;24.63;;;16.20;;
33593;SDS011;19920;52.242;20.940;2024-02-26T08:50:12;22.08;;;16.17;;
33593;SDS011;19920;52.242;20.940;2024-02-26T08:52:38;25.67;;;16.63;;
33593;SDS011;19920;52.242;20.940;2024-02-26T08:55:05;23.10;;;17.23;;
33593;SDS011;19920;52.242;20.940;2024-02-26T08:57:33;25.17;;;17.67;;
33593;SDS011;19920;52.242;20.940;2024-02-26T09:00:00;23.50;;;17.15;;
33593;SDS011;19920;52.242;20.940;2024-02-26T09:02:26;23.98;;;17.35;;
33593;SDS011;19920;52.242;20.940;2024-02-26T09:04:52;25.05;;;18.23;;
33593;SDS011;19920;52.242;20.940;2024-02-26T09:07:20;25.42;;;17.40;;
33593;SDS011;19920;52.242;20.940;2024-02-26T09:09:46;24.80;;;16.88;;
33593;SDS011;19920;52.242;20.940;2024-02-26T09:12:11;21.52;;;15.90;;
33593;SDS011;19920;52.242;20.940;2024-02-26T09:14:37;23.85;;;17.02;;
33593;SDS011;19920;52.242;20.940;2024-02-26T09:17:03;21.65;;;16.90;;
33593;SDS011;19920;52.242;20.940;2024-02-26T09:19:30;23.42;;;16.58;;
33593;SDS011;19920;52.242;20.940;2024-02-26T09:21:56;23.65;;;16.50;;
33593;SDS011;19920;52.242;20.940;2024-02-26T09:24:23;21.63;;;17.50;;
33593;SDS011;19920;52.242;20.940;2024-02-26T09:26:49;23.63;;;16.17;;
33593;SDS011;19920;52.242;20.940;2024-02-26T09:29:15;22.23;;;16.42;;
33593;SDS011;19920;52.242;20.940;2024-02-26T09:31:41;21.17;;;16.33;;
33593;SDS011;19920;52.242;20.940;2024-02-26T09:34:07;19.98;;;15.73;;
33593;SDS011;19920;52.242;20.940;2024-02-26T09:36:33;19.08;;;15.65;;
33593;SDS011;19920;52.242;20.940;2024-02-26T09:38:59;18.58;;;14.98;;
33593;SDS011;19920;52.242;20.940;2024-02-26T09:41:25;20.00;;;15.02;;
33593;SDS011;19920;52.242;20.940;2024-02-26T09:43:55;18.60;;;14.63;;
33593;SDS011;19920;52.242;20.940;2024-02-26T09:46:22;21.23;;;14.95;;
33593;SDS011;19920;52.242;20.940;2024-02-26T09:48:48;20.42;;;16.40;;
33593;SDS011;19920;52.242;20.940;2024-02-26T09:51:14;28.33;;;15.82;;
33593;SDS011;19920;52.242;20.940;2024-02-26T09:53:42;19.80;;;14.80;;
33593;SDS011;19920;52.242;20.940;2024-02-26T09:56:11;20.05;;;15.05;;
33593;SDS011;19920;52.242;20.940;2024-02-26T09:58:38;18.83;;;15.35;;
33593;SDS011;19920;52.242;20.940;2024-02-26T10:01:05;22.52;;;15.20;;
33593;SDS011;19920;52.242;20.940;2024-02-26T10:03:38;20.15;;;13.93;;
33593;SDS011;19920;52.242;20.940;2024-02-26T10:06:09;19.23;;;13.07;;
33593;SDS011;19920;52.242;20.940;2024-02-26T10:08:35;18.67;;;13.98;;
33593;SDS011;19920;52.242;20.940;2024-02-26T10:11:02;18.13;;;14.45;;
33593;SDS011;19920;52.242;20.940;2024-02-26T10:13:29;17.83;;;13.48;;
33593;SDS011;19920;52.242;20.940;2024-02-26T10:15:55;18.30;;;14.32;;
33593;SDS011;19920;52.242;20.940;2024-02-26T10:18:22;19.80;;;14.27;;
33593;SDS011;19920;52.242;20.940;2024-02-26T10:21:01;17.92;;;13.77;;
33593;SDS011;19920;52.242;20.940;2024-02-26T10:23:27;17.65;;;14.10;;
33593;SDS011;19920;52.242;20.940;2024-02-26T10:25:56;19.50;;;13.98;;
33593;SDS011;19920;52.242;20.940;2024-02-26T10:28:22;18.58;;;13.43;;
33593;SDS011;19920;52.242;20.940;2024-02-26T10:30:48;18.55;;;13.23;;
33593;SDS011;19920;52.242;20.940;2024-02-26T10:33:13;15.20;;;12.80;;
33593;SDS011;19920;52.242;20.940;2024-02-26T10:35:40;17.50;;;12.73;;
33593;SDS011;19920;52.242;20.940;2024-02-26T10:38:11;16.67;;;12.13;;
33593;SDS011;19920;52.242;20.940;2024-02-26T10:40:37;18.67;;;12.68;;
33593;SDS011;19920;52.242;20.940;2024-02-26T10:43:03;14.15;;;12.45;;
33593;SDS011;19920;52.242;20.940;2024-02-26T10:45:28;13.15;;;11.20;;
33593;SDS011;19920;52.242;20.940;2024-02-26T10:47:54;16.83;;;12.88;;
33593;SDS011;19920;52.242;20.940;2024-02-26T10:50:20;15.10;;;12.30;;
33593;SDS011;19920;52.242;20.940;2024-02-26T10:52:45;15.48;;;12.70;;
33593;SDS011;19920;52.242;20.940;2024-02-26T10:55:15;14.48;;;12.10;;
33593;SDS011;19920;52.242;20.940;2024-02-26T10:57:44;15.20;;;12.05;;
33593;SDS011;19920;52.242;20.940;2024-02-26T11:00:13;16.15;;;11.57;;
33593;SDS011;19920;52.242;20.940;2024-02-26T11:02:40;14.00;;;12.15;;
33593;SDS011;19920;52.242;20.940;2024-02-26T11:05:06;14.02;;;12.45;;
33593;SDS011;19920;52.242;20.940;2024-02-26T11:07:36;27.60;;;13.85;;
33593;SDS011;19920;52.242;20.940;2024-02-26T11:10:02;13.98;;;11.98;;
33593;SDS011;19920;52.242;20.940;2024-02-26T11:12:30;13.55;;;11.55;;
33593;SDS011;19920;52.242;20.940;2024-02-26T11:14:57;11.95;;;10.70;;
33593;SDS011;19920;52.242;20.940;2024-02-26T11:17:28;11.55;;;10.15;;
33593;SDS011;19920;52.242;20.940;2024-02-26T11:19:57;12.82;;;10.48;;
33593;SDS011;19920;52.242;20.940;2024-02-26T11:22:27;10.68;;;9.57;;
33593;SDS011;19920;52.242;20.940;2024-02-26T11:24:54;12.18;;;8.95;;
33593;SDS011;19920;52.242;20.940;2024-02-26T11:27:27;10.38;;;9.35;;
33593;SDS011;19920;52.242;20.940;2024-02-26T11:29:59;11.90;;;9.57;;
33593;SDS011;19920;52.242;20.940;2024-02-26T11:32:27;11.82;;;10.13;;
33593;SDS011;19920;52.242;20.940;2024-02-26T11:34:55;11.90;;;9.27;;
33593;SDS011;19920;52.242;20.940;2024-02-26T11:37:22;10.32;;;8.88;;
33593;SDS011;19920;52.242;20.940;2024-02-26T11:39:48;9.90;;;8.90;;
33593;SDS011;19920;52.242;20.940;2024-02-26T11:42:16;9.25;;;8.32;;
33593;SDS011;19920;52.242;20.940;2024-02-26T11:44:43;8.70;;;7.68;;
33593;SDS011;19920;52.242;20.940;2024-02-26T11:47:12;10.13;;;8.18;;
33593;SDS011;19920;52.242;20.940;2024-02-26T11:49:39;9.50;;;7.80;;
33593;SDS011;19920;52.242;20.940;2024-02-26T11:52:06;8.02;;;7.13;;
33593;SDS011;19920;52.242;20.940;2024-02-26T12:02:41;10.77;;;7.18;;
33593;SDS011;19920;52.242;20.940;2024-02-26T12:05:17;10.55;;;6.88;;
33593;SDS011;19920;52.242;20.940;2024-02-26T12:10:42;7.70;;;6.93;;
33593;SDS011;19920;52.242;20.940;2024-02-26T12:13:15;8.30;;;6.80;;
33593;SDS011;19920;52.242;20.940;2024-02-26T12:15:45;8.68;;;6.97;;
33593;SDS011;19920;52.242;20.940;2024-02-26T12:18:20;7.07;;;6.35;;
33593;SDS011;19920;52.242;20.940;2024-02-26T12:20:47;11.65;;;6.80;;
33593;SDS011;19920;52.242;20.940;2024-02-26T12:23:24;7.82;;;6.88;;
33593;SDS011;19920;52.242;20.940;2024-02-26T12:25:50;6.85;;;5.95;;
33593;SDS011;19920;52.242;20.940;2024-02-26T12:28:15;8.85;;;6.13;;
33593;SDS011;19920;52.242;20.940;2024-02-26T12:30:41;8.90;;;6.00;;
33593;SDS011;19920;52.242;20.940;2024-02-26T12:33:06;8.25;;;5.68;;
33593;SDS011;19920;52.242;20.940;2024-02-26T12:35:33;8.15;;;6.43;;
33593;SDS011;19920;52.242;20.940;2024-02-26T12:38:00;6.50;;;5.85;;
33593;SDS011;19920;52.242;20.940;2024-02-26T12:40:28;8.27;;;6.07;;
33593;SDS011;19920;52.242;20.940;2024-02-26T12:42:55;5.63;;;5.03;;
33593;SDS011;19920;52.242;20.940;2024-02-26T12:45:20;5.57;;;4.70;;
33593;SDS011;19920;52.242;20.940;2024-02-26T12:47:46;7.25;;;4.40;;
33593;SDS011;19920;52.242;20.940;2024-02-26T12:50:13;6.05;;;5.10;;
33593;SDS011;19920;52.242;20.940;2024-02-26T12:52:47;5.53;;;4.60;;
33593;SDS011;19920;52.242;20.940;2024-02-26T12:55:17;8.85;;;5.88;;
33593;SDS011;19920;52.242;20.940;2024-02-26T12:57:45;8.32;;;5.35;;
33593;SDS011;19920;52.242;20.940;2024-02-26T13:00:15;9.18;;;5.28;;
33593;SDS011;19920;52.242;20.940;2024-02-26T13:02:43;5.90;;;4.67;;
33593;SDS011;19920;52.242;20.940;2024-02-26T13:05:11;6.30;;;5.03;;
33593;SDS011;19920;52.242;20.940;2024-02-26T13:07:42;5.75;;;4.68;;
33593;SDS011;19920;52.242;20.940;2024-02-26T13:10:08;6.68;;;4.88;;
33593;SDS011;19920;52.242;20.940;2024-02-26T13:12:36;5.10;;;4.45;;
33593;SDS011;19920;52.242;20.940;2024-02-26T13:15:17;5.15;;;4.28;;
33593;SDS011;19920;52.242;20.940;2024-02-26T13:17:44;4.55;;;4.13;;
33593;SDS011;19920;52.242;20.940;2024-02-26T13:20:10;6.10;;;4.10;;
33593;SDS011;19920;52.242;20.940;2024-02-26T13:22:36;5.43;;;4.22;;
33593;SDS011;19920;52.242;20.940;2024-02-26T13:25:03;5.63;;;4.03;;
33593;SDS011;19920;52.242;20.940;2024-02-26T13:27:29;5.28;;;3.72;;
33593;SDS011;19920;52.242;20.940;2024-02-26T13:30:02;5.65;;;3.85;;
33593;SDS011;19920;52.242;20.940;2024-02-26T13:32:40;6.60;;;3.55;;
33593;SDS011;19920;52.242;20.940;2024-02-26T13:35:10;4.15;;;3.00;;
33593;SDS011;19920;52.242;20.940;2024-02-26T13:37:37;3.40;;;3.00;;
33593;SDS011;19920;52.242;20.940;2024-02-26T13:40:04;3.85;;;2.50;;
33593;SDS011;19920;52.242;20.940;2024-02-26T13:42:34;5.22;;;2.63;;
33593;SDS011;19920;52.242;20.940;2024-02-26T13:45:00;3.67;;;3.10;;
33593;SDS011;19920;52.242;20.940;2024-02-26T13:47:26;4.68;;;3.20;;
33593;SDS011;19920;52.242;20.940;2024-02-26T13:49:52;3.15;;;2.53;;
33593;SDS011;19920;52.242;20.940;2024-02-26T13:52:17;3.95;;;2.65;;
33593;SDS011;19920;52.242;20.940;2024-02-26T13:54:45;3.50;;;2.88;;
33593;SDS011;19920;52.242;20.940;2024-02-26T13:57:11;3.75;;;2.80;;
33593;SDS011;19920;52.242;20.940;2024-02-26T13:59:37;2.95;;;2.60;;
33593;SDS011;19920;52.242;20.940;2024-02-26T14:04:32;4.97;;;2.47;;
33593;SDS011;19920;52.242;20.940;2024-02-26T14:06:57;2.88;;;2.30;;
33593;SDS011;19920;52.242;20.940;2024-02-26T14:09:23;3.40;;;2.30;;
33593;SDS011;19920;52.242;20.940;2024-02-26T14:11:49;6.15;;;2.60;;
33593;SDS011;19920;52.242;20.940;2024-02-26T14:14:14;3.00;;;2.20;;
33593;SDS011;19920;52.242;20.940;2024-02-26T14:16:40;5.07;;;3.13;;
33593;SDS011;19920;52.242;20.940;2024-02-26T14:19:06;4.65;;;2.83;;
33593;SDS011;19920;52.242;20.940;2024-02-26T14:21:31;4.97;;;2.38;;
33593;SDS011;19920;52.242;20.940;2024-02-26T14:23:57;6.15;;;2.75;;
33593;SDS011;19920;52.242;20.940;2024-02-26T14:26:22;5.95;;;2.67;;
33593;SDS011;19920;52.242;20.940;2024-02-26T14:28:48;9.82;;;2.78;;